sensor_id;sensor_type;location;lat;lon;timestamp;temperature;humidity
31735;DHT22;18313;48.518;9.124;2022-08-02T00:00:36;18.70;99.90
31735;DHT22;18313;48.518;9.124;2022-08-02T00:03:03;18.60;99.90
31735;DHT22;18313;48.518;9.124;2022-08-02T00:05:31;18.60;99.90
31735;DHT22;18313;48.518;9.124;2022-08-02T00:07:58;18.40;99.90
31735;DHT22;18313;48.518;9.124;2022-08-02T00:10:25;18.40;99.90
31735;DHT22;18313;48.518;9.124;2022-08-02T00:12:51;18.40;99.90
31735;DHT22;18313;48.518;9.124;2022-08-02T00:15:21;18.40;99.90
31735;DHT22;18313;48.518;9.124;2022-08-02T00:17:47;18.20;99.90
31735;DHT22;18313;48.518;9.124;2022-08-02T00:20:15;18.20;99.90
31735;DHT22;18313;48.518;9.124;2022-08-02T00:22:42;18.30;99.90
31735;DHT22;18313;48.518;9.124;2022-08-02T00:25:09;18.20;99.90
31735;DHT22;18313;48.518;9.124;2022-08-02T00:27:36;18.20;99.90
31735;DHT22;18313;48.518;9.124;2022-08-02T00:30:03;18.30;99.90
31735;DHT22;18313;48.518;9.124;2022-08-02T00:32:31;18.20;99.90
31735;DHT22;18313;48.518;9.124;2022-08-02T00:34:57;18.20;99.90
31735;DHT22;18313;48.518;9.124;2022-08-02T00:37:24;18.20;99.90
31735;DHT22;18313;48.518;9.124;2022-08-02T00:39:51;18.20;99.90
31735;DHT22;18313;48.518;9.124;2022-08-02T00:42:18;18.20;99.90
31735;DHT22;18313;48.518;9.124;2022-08-02T00:44:45;18.10;99.90
31735;DHT22;18313;48.518;9.124;2022-08-02T00:47:12;18.20;99.90
31735;DHT22;18313;48.518;9.124;2022-08-02T00:49:45;18.20;99.90
31735;DHT22;18313;48.518;9.124;2022-08-02T00:52:13;18.20;99.90
31735;DHT22;18313;48.518;9.124;2022-08-02T00:54:40;18.20;99.90
31735;DHT22;18313;48.518;9.124;2022-08-02T00:57:07;18.30;99.90
31735;DHT22;18313;48.518;9.124;2022-08-02T00:59:34;18.30;99.90
31735;DHT22;18313;48.518;9.124;2022-08-02T01:06:08;18.50;99.90
31735;DHT22;18313;48.518;9.124;2022-08-02T01:09:27;18.50;99.90
31735;DHT22;18313;48.518;9.124;2022-08-02T01:11:54;18.30;99.90
31735;DHT22;18313;48.518;9.124;2022-08-02T01:14:23;18.30;99.90
31735;DHT22;18313;48.518;9.124;2022-08-02T01:17:07;18.20;99.90
31735;DHT22;18313;48.518;9.124;2022-08-02T01:19:37;18.20;99.90
31735;DHT22;18313;48.518;9.124;2022-08-02T01:29:18;18.10;99.90
31735;DHT22;18313;48.518;9.124;2022-08-02T01:32:11;18.10;99.90
31735;DHT22;18313;48.518;9.124;2022-08-02T01:34:55;18.00;99.90
31735;DHT22;18313;48.518;9.124;2022-08-02T01:37:31;18.00;99.90
31735;DHT22;18313;48.518;9.124;2022-08-02T01:40:08;18.00;99.90
31735;DHT22;18313;48.518;9.124;2022-08-02T01:42:40;18.00;99.90
31735;DHT22;18313;48.518;9.124;2022-08-02T01:45:09;18.00;99.90
31735;DHT22;18313;48.518;9.124;2022-08-02T01:47:39;18.00;99.90
31735;DHT22;18313;48.518;9.124;2022-08-02T01:50:08;18.00;99.90
31735;DHT22;18313;48.518;9.124;2022-08-02T01:52:40;18.00;99.90
31735;DHT22;18313;48.518;9.124;2022-08-02T01:55:22;18.00;99.90
31735;DHT22;18313;48.518;9.124;2022-08-02T01:58:03;18.00;99.90
31735;DHT22;18313;48.518;9.124;2022-08-02T02:00:32;17.90;99.90
31735;DHT22;18313;48.518;9.124;2022-08-02T02:03:01;17.90;99.90
31735;DHT22;18313;48.518;9.124;2022-08-02T02:05:31;17.80;99.90
31735;DHT22;18313;48.518;9.124;2022-08-02T02:08:01;17.80;99.90
31735;DHT22;18313;48.518;9.124;2022-08-02T02:10:32;17.70;99.90
31735;DHT22;18313;48.518;9.124;2022-08-02T02:13:06;17.70;99.90
31735;DHT22;18313;48.518;9.124;2022-08-02T02:15:34;17.60;99.90
31735;DHT22;18313;48.518;9.124;2022-08-02T02:18:07;17.50;99.90
31735;DHT22;18313;48.518;9.124;2022-08-02T02:20:39;17.50;99.90
31735;DHT22;18313;48.518;9.124;2022-08-02T02:23:07;17.50;99.90
31735;DHT22;18313;48.518;9.124;2022-08-02T02:25:34;17.50;99.90
31735;DHT22;18313;48.518;9.124;2022-08-02T02:28:18;17.50;99.90
31735;DHT22;18313;48.518;9.124;2022-08-02T02:30:49;17.40;99.90
31735;DHT22;18313;48.518;9.124;2022-08-02T02:33:19;17.30;99.90
31735;DHT22;18313;48.518;9.124;2022-08-02T02:35:53;17.30;99.90
31735;DHT22;18313;48.518;9.124;2022-08-02T02:38:21;17.30;99.90
31735;DHT22;18313;48.518;9.124;2022-08-02T02:40:48;17.40;99.90
31735;DHT22;18313;48.518;9.124;2022-08-02T02:43:16;17.20;99.90
31735;DHT22;18313;48.518;9.124;2022-08-02T02:45:44;17.20;99.90
31735;DHT22;18313;48.518;9.124;2022-08-02T02:48:13;17.10;99.90
31735;DHT22;18313;48.518;9.124;2022-08-02T02:50:42;17.10;99.90
31735;DHT22;18313;48.518;9.124;2022-08-02T02:53:10;17.10;99.90
31735;DHT22;18313;48.518;9.124;2022-08-02T02:55:39;17.00;99.90
31735;DHT22;18313;48.518;9.124;2022-08-02T02:58:27;16.90;99.90
31735;DHT22;18313;48.518;9.124;2022-08-02T03:00:55;16.90;99.90
31735;DHT22;18313;48.518;9.124;2022-08-02T03:03:45;16.90;99.90
31735;DHT22;18313;48.518;9.124;2022-08-02T03:06:12;16.80;99.90
31735;DHT22;18313;48.518;9.124;2022-08-02T03:08:42;16.70;99.90
31735;DHT22;18313;48.518;9.124;2022-08-02T03:11:10;16.70;99.90
31735;DHT22;18313;48.518;9.124;2022-08-02T03:13:38;16.70;99.90
31735;DHT22;18313;48.518;9.124;2022-08-02T03:16:05;16.70;99.90
31735;DHT22;18313;48.518;9.124;2022-08-02T03:18:35;16.70;99.90
31735;DHT22;18313;48.518;9.124;2022-08-02T03:21:04;16.70;99.90
31735;DHT22;18313;48.518;9.124;2022-08-02T03:23:32;16.60;99.90
31735;DHT22;18313;48.518;9.124;2022-08-02T03:26:00;16.50;99.90
31735;DHT22;18313;48.518;9.124;2022-08-02T03:28:27;16.50;99.90
31735;DHT22;18313;48.518;9.124;2022-08-02T03:30:54;16.30;99.90
31735;DHT22;18313;48.518;9.124;2022-08-02T03:33:23;16.30;99.90
31735;DHT22;18313;48.518;9.124;2022-08-02T03:35:51;16.30;99.90
31735;DHT22;18313;48.518;9.124;2022-08-02T03:38:20;16.20;99.90
31735;DHT22;18313;48.518;9.124;2022-08-02T03:40:55;16.20;99.90
31735;DHT22;18313;48.518;9.124;2022-08-02T03:43:23;16.30;99.90
31735;DHT22;18313;48.518;9.124;2022-08-02T03:45:54;16.30;99.90
31735;DHT22;18313;48.518;9.124;2022-08-02T03:48:22;16.20;99.90
31735;DHT22;18313;48.518;9.124;2022-08-02T03:51:01;16.30;99.90
31735;DHT22;18313;48.518;9.124;2022-08-02T03:53:28;16.30;99.90
31735;DHT22;18313;48.518;9.124;2022-08-02T03:55:56;16.30;99.90
31735;DHT22;18313;48.518;9.124;2022-08-02T03:58:23;16.30;99.90
31735;DHT22;18313;48.518;9.124;2022-08-02T04:00:54;16.30;99.90
31735;DHT22;18313;48.518;9.124;2022-08-02T04:03:22;16.30;99.90
31735;DHT22;18313;48.518;9.124;2022-08-02T04:05:50;16.30;99.90
31735;DHT22;18313;48.518;9.124;2022-08-02T04:08:31;16.20;99.90
31735;DHT22;18313;48.518;9.124;2022-08-02T04:11:03;16.30;99.90
31735;DHT22;18313;48.518;9.124;2022-08-02T04:13:48;16.20;99.90
31735;DHT22;18313;48.518;9.124;2022-08-02T04:16:20;16.20;99.90
31735;DHT22;18313;48.518;9.124;2022-08-02T04:19:00;16.20;99.90
31735;DHT22;18313;48.518;9.124;2022-08-02T04:21:33;16.20;99.90
31735;DHT22;18313;48.518;9.124;2022-08-02T04:24:21;16.30;99.90
31735;DHT22;18313;48.518;9.124;2022-08-02T04:26:53;16.30;99.90
31735;DHT22;18313;48.518;9.124;2022-08-02T04:29:33;16.30;99.90
31735;DHT22;18313;48.518;9.124;2022-08-02T04:32:02;16.40;99.90
31735;DHT22;18313;48.518;9.124;2022-08-02T04:34:29;16.40;99.90
31735;DHT22;18313;48.518;9.124;2022-08-02T04:36:57;16.40;99.90
31735;DHT22;18313;48.518;9.124;2022-08-02T04:39:26;16.50;99.90
31735;DHT22;18313;48.518;9.124;2022-08-02T04:41:53;16.70;99.90
31735;DHT22;18313;48.518;9.124;2022-08-02T04:44:23;16.80;99.90
31735;DHT22;18313;48.518;9.124;2022-08-02T04:46:51;16.90;99.90
31735;DHT22;18313;48.518;9.124;2022-08-02T04:49:18;17.10;99.90
31735;DHT22;18313;48.518;9.124;2022-08-02T04:51:45;17.00;99.90
31735;DHT22;18313;48.518;9.124;2022-08-02T04:54:12;16.90;99.90
31735;DHT22;18313;48.518;9.124;2022-08-02T04:56:40;17.00;99.90
31735;DHT22;18313;48.518;9.124;2022-08-02T04:59:07;17.10;99.90
31735;DHT22;18313;48.518;9.124;2022-08-02T05:01:34;17.20;99.90
31735;DHT22;18313;48.518;9.124;2022-08-02T05:04:02;17.40;99.90
31735;DHT22;18313;48.518;9.124;2022-08-02T05:06:30;17.60;99.90
31735;DHT22;18313;48.518;9.124;2022-08-02T05:08:57;17.70;99.90
31735;DHT22;18313;48.518;9.124;2022-08-02T05:11:24;17.90;99.90
31735;DHT22;18313;48.518;9.124;2022-08-02T05:14:03;18.00;99.90
31735;DHT22;18313;48.518;9.124;2022-08-02T05:16:31;18.00;99.90
31735;DHT22;18313;48.518;9.124;2022-08-02T05:18:59;18.20;99.90
31735;DHT22;18313;48.518;9.124;2022-08-02T05:21:27;18.40;99.90
31735;DHT22;18313;48.518;9.124;2022-08-02T05:23:55;18.50;99.90
31735;DHT22;18313;48.518;9.124;2022-08-02T05:26:22;18.60;99.90
31735;DHT22;18313;48.518;9.124;2022-08-02T05:28:49;18.80;99.90
31735;DHT22;18313;48.518;9.124;2022-08-02T05:31:16;18.90;99.90
31735;DHT22;18313;48.518;9.124;2022-08-02T05:33:43;19.00;99.90
31735;DHT22;18313;48.518;9.124;2022-08-02T05:36:10;19.20;99.90
31735;DHT22;18313;48.518;9.124;2022-08-02T05:38:37;19.20;99.90
31735;DHT22;18313;48.518;9.124;2022-08-02T05:41:05;19.30;99.90
31735;DHT22;18313;48.518;9.124;2022-08-02T05:43:32;19.30;99.90
31735;DHT22;18313;48.518;9.124;2022-08-02T05:45:59;19.40;99.90
31735;DHT22;18313;48.518;9.124;2022-08-02T05:48:26;19.50;99.90
31735;DHT22;18313;48.518;9.124;2022-08-02T05:51:37;19.70;99.90
31735;DHT22;18313;48.518;9.124;2022-08-02T05:54:14;19.80;99.90
31735;DHT22;18313;48.518;9.124;2022-08-02T05:56:50;19.80;99.90
31735;DHT22;18313;48.518;9.124;2022-08-02T05:59:31;19.80;99.90
31735;DHT22;18313;48.518;9.124;2022-08-02T06:02:02;19.60;99.90
31735;DHT22;18313;48.518;9.124;2022-08-02T06:04:47;19.60;99.90
31735;DHT22;18313;48.518;9.124;2022-08-02T06:07:21;19.60;99.90
31735;DHT22;18313;48.518;9.124;2022-08-02T06:09:50;19.50;99.90
31735;DHT22;18313;48.518;9.124;2022-08-02T06:12:18;19.50;99.90
31735;DHT22;18313;48.518;9.124;2022-08-02T06:14:46;19.50;99.90
31735;DHT22;18313;48.518;9.124;2022-08-02T06:17:19;19.50;99.90
31735;DHT22;18313;48.518;9.124;2022-08-02T06:19:47;19.50;99.90
31735;DHT22;18313;48.518;9.124;2022-08-02T06:22:18;19.50;99.90
31735;DHT22;18313;48.518;9.124;2022-08-02T06:25:00;19.50;99.90
31735;DHT22;18313;48.518;9.124;2022-08-02T06:27:29;19.60;99.90
31735;DHT22;18313;48.518;9.124;2022-08-02T06:29:56;19.70;99.90
31735;DHT22;18313;48.518;9.124;2022-08-02T06:32:26;19.90;99.90
31735;DHT22;18313;48.518;9.124;2022-08-02T06:34:53;20.00;99.90
31735;DHT22;18313;48.518;9.124;2022-08-02T06:37:28;20.10;99.90
31735;DHT22;18313;48.518;9.124;2022-08-02T06:40:23;20.20;99.90
31735;DHT22;18313;48.518;9.124;2022-08-02T06:43:30;20.30;99.90
31735;DHT22;18313;48.518;9.124;2022-08-02T06:46:02;20.40;99.90
31735;DHT22;18313;48.518;9.124;2022-08-02T06:48:49;20.60;99.90
31735;DHT22;18313;48.518;9.124;2022-08-02T06:51:17;20.50;99.90
31735;DHT22;18313;48.518;9.124;2022-08-02T06:53:45;20.60;99.90
31735;DHT22;18313;48.518;9.124;2022-08-02T06:56:12;20.70;99.90
31735;DHT22;18313;48.518;9.124;2022-08-02T06:58:39;20.70;99.90
31735;DHT22;18313;48.518;9.124;2022-08-02T07:01:06;20.70;99.90
31735;DHT22;18313;48.518;9.124;2022-08-02T07:03:36;20.80;99.90
31735;DHT22;18313;48.518;9.124;2022-08-02T07:06:04;20.80;99.90
31735;DHT22;18313;48.518;9.124;2022-08-02T07:08:32;20.90;99.90
31735;DHT22;18313;48.518;9.124;2022-08-02T07:10:59;20.90;99.90
31735;DHT22;18313;48.518;9.124;2022-08-02T07:13:28;21.00;99.90
31735;DHT22;18313;48.518;9.124;2022-08-02T07:15:56;21.30;99.90
31735;DHT22;18313;48.518;9.124;2022-08-02T07:18:23;21.40;99.90
31735;DHT22;18313;48.518;9.124;2022-08-02T07:20:50;21.50;99.90
31735;DHT22;18313;48.518;9.124;2022-08-02T07:23:17;21.60;99.90
31735;DHT22;18313;48.518;9.124;2022-08-02T07:25:45;21.80;99.90
31735;DHT22;18313;48.518;9.124;2022-08-02T07:28:29;21.90;99.90
31735;DHT22;18313;48.518;9.124;2022-08-02T07:30:56;22.20;99.90
31735;DHT22;18313;48.518;9.124;2022-08-02T07:33:23;22.20;99.90
31735;DHT22;18313;48.518;9.124;2022-08-02T07:36:06;22.30;99.90
31735;DHT22;18313;48.518;9.124;2022-08-02T07:38:42;22.50;99.90
31735;DHT22;18313;48.518;9.124;2022-08-02T07:41:11;22.70;99.90
31735;DHT22;18313;48.518;9.124;2022-08-02T07:43:38;22.80;99.90
31735;DHT22;18313;48.518;9.124;2022-08-02T07:46:05;22.90;99.90
31735;DHT22;18313;48.518;9.124;2022-08-02T07:48:32;22.90;99.90
31735;DHT22;18313;48.518;9.124;2022-08-02T07:50:59;23.10;99.90
31735;DHT22;18313;48.518;9.124;2022-08-02T07:53:26;23.20;99.90
31735;DHT22;18313;48.518;9.124;2022-08-02T07:56:12;23.40;99.90
31735;DHT22;18313;48.518;9.124;2022-08-02T07:58:43;23.60;99.90
31735;DHT22;18313;48.518;9.124;2022-08-02T08:01:09;23.70;99.90
31735;DHT22;18313;48.518;9.124;2022-08-02T08:03:37;23.90;99.90
31735;DHT22;18313;48.518;9.124;2022-08-02T08:06:04;24.10;99.90
31735;DHT22;18313;48.518;9.124;2022-08-02T08:08:33;24.20;99.90
31735;DHT22;18313;48.518;9.124;2022-08-02T08:11:00;24.40;99.90
31735;DHT22;18313;48.518;9.124;2022-08-02T08:13:27;24.70;99.90
31735;DHT22;18313;48.518;9.124;2022-08-02T08:15:54;24.90;99.90
31735;DHT22;18313;48.518;9.124;2022-08-02T08:18:21;25.10;99.90
31735;DHT22;18313;48.518;9.124;2022-08-02T08:20:49;25.30;99.90
31735;DHT22;18313;48.518;9.124;2022-08-02T08:23:15;25.40;99.90
31735;DHT22;18313;48.518;9.124;2022-08-02T08:25:42;25.50;99.90
31735;DHT22;18313;48.518;9.124;2022-08-02T08:28:11;25.50;99.00
31735;DHT22;18313;48.518;9.124;2022-08-02T08:30:39;25.50;99.40
31735;DHT22;18313;48.518;9.124;2022-08-02T08:33:08;25.60;98.90
31735;DHT22;18313;48.518;9.124;2022-08-02T08:35:35;25.80;98.90
31735;DHT22;18313;48.518;9.124;2022-08-02T08:38:02;26.00;98.30
31735;DHT22;18313;48.518;9.124;2022-08-02T08:40:34;26.20;98.70
31735;DHT22;18313;48.518;9.124;2022-08-02T08:43:01;26.20;98.40
31735;DHT22;18313;48.518;9.124;2022-08-02T08:45:28;25.90;98.70
31735;DHT22;18313;48.518;9.124;2022-08-02T08:48:16;26.00;98.60
31735;DHT22;18313;48.518;9.124;2022-08-02T08:51:03;26.30;98.60
31735;DHT22;18313;48.518;9.124;2022-08-02T08:53:38;26.60;98.60
31735;DHT22;18313;48.518;9.124;2022-08-02T08:56:07;26.90;98.10
31735;DHT22;18313;48.518;9.124;2022-08-02T08:58:43;27.10;98.00
31735;DHT22;18313;48.518;9.124;2022-08-02T09:01:12;27.40;97.90
31735;DHT22;18313;48.518;9.124;2022-08-02T09:03:39;27.70;96.90
31735;DHT22;18313;48.518;9.124;2022-08-02T09:06:05;27.70;95.30
31735;DHT22;18313;48.518;9.124;2022-08-02T09:08:33;27.80;96.80
31735;DHT22;18313;48.518;9.124;2022-08-02T09:11:00;28.00;96.40
31735;DHT22;18313;48.518;9.124;2022-08-02T09:13:28;28.30;95.90
31735;DHT22;18313;48.518;9.124;2022-08-02T09:16:11;28.70;94.00
31735;DHT22;18313;48.518;9.124;2022-08-02T09:18:44;28.90;93.90
31735;DHT22;18313;48.518;9.124;2022-08-02T09:21:15;29.10;94.30
31735;DHT22;18313;48.518;9.124;2022-08-02T09:23:45;29.30;93.00
31735;DHT22;18313;48.518;9.124;2022-08-02T09:26:21;29.50;93.50
31735;DHT22;18313;48.518;9.124;2022-08-02T09:28:50;29.60;91.10
31735;DHT22;18313;48.518;9.124;2022-08-02T09:31:22;29.50;92.20
31735;DHT22;18313;48.518;9.124;2022-08-02T09:33:55;29.70;91.30
31735;DHT22;18313;48.518;9.124;2022-08-02T09:36:23;29.80;91.20
31735;DHT22;18313;48.518;9.124;2022-08-02T09:41:27;29.80;90.50
31735;DHT22;18313;48.518;9.124;2022-08-02T09:43:55;29.50;91.80
31735;DHT22;18313;48.518;9.124;2022-08-02T09:46:39;29.30;91.10
31735;DHT22;18313;48.518;9.124;2022-08-02T09:49:12;29.40;91.10
31735;DHT22;18313;48.518;9.124;2022-08-02T09:51:48;29.60;91.50
31735;DHT22;18313;48.518;9.124;2022-08-02T09:56:49;30.50;91.20
31735;DHT22;18313;48.518;9.124;2022-08-02T09:59:18;30.90;89.60
31735;DHT22;18313;48.518;9.124;2022-08-02T10:01:47;31.10;87.20
31735;DHT22;18313;48.518;9.124;2022-08-02T10:04:27;31.20;87.80
31735;DHT22;18313;48.518;9.124;2022-08-02T10:07:00;31.30;86.70
31735;DHT22;18313;48.518;9.124;2022-08-02T10:09:31;31.20;86.20
31735;DHT22;18313;48.518;9.124;2022-08-02T10:11:59;31.30;86.90
31735;DHT22;18313;48.518;9.124;2022-08-02T10:14:26;31.40;85.20
31735;DHT22;18313;48.518;9.124;2022-08-02T10:16:55;30.90;85.10
31735;DHT22;18313;48.518;9.124;2022-08-02T10:19:23;30.60;85.70
31735;DHT22;18313;48.518;9.124;2022-08-02T10:22:12;30.40;88.00
31735;DHT22;18313;48.518;9.124;2022-08-02T10:24:41;30.80;84.90
31735;DHT22;18313;48.518;9.124;2022-08-02T10:27:17;30.90;87.40
31735;DHT22;18313;48.518;9.124;2022-08-02T10:29:48;31.10;86.20
31735;DHT22;18313;48.518;9.124;2022-08-02T10:32:32;31.40;85.30
31735;DHT22;18313;48.518;9.124;2022-08-02T10:35:16;31.50;84.20
31735;DHT22;18313;48.518;9.124;2022-08-02T10:37:54;31.50;84.20
31735;DHT22;18313;48.518;9.124;2022-08-02T10:40:22;31.60;85.80
31735;DHT22;18313;48.518;9.124;2022-08-02T10:42:56;31.80;82.00
31735;DHT22;18313;48.518;9.124;2022-08-02T10:45:27;31.60;83.70
31735;DHT22;18313;48.518;9.124;2022-08-02T10:53:36;32.50;77.80
31735;DHT22;18313;48.518;9.124;2022-08-02T10:56:04;32.70;76.60
31735;DHT22;18313;48.518;9.124;2022-08-02T10:58:35;32.60;78.80
31735;DHT22;18313;48.518;9.124;2022-08-02T11:01:04;32.40;77.50
31735;DHT22;18313;48.518;9.124;2022-08-02T11:06:10;32.00;77.00
31735;DHT22;18313;48.518;9.124;2022-08-02T11:09:29;31.90;77.90
31735;DHT22;18313;48.518;9.124;2022-08-02T11:12:05;32.20;78.60
31735;DHT22;18313;48.518;9.124;2022-08-02T11:14:37;32.40;78.10
31735;DHT22;18313;48.518;9.124;2022-08-02T11:17:06;32.80;80.10
31735;DHT22;18313;48.518;9.124;2022-08-02T11:22:38;33.00;76.90
31735;DHT22;18313;48.518;9.124;2022-08-02T11:27:54;33.30;76.50
31735;DHT22;18313;48.518;9.124;2022-08-02T11:30:22;33.40;74.20
31735;DHT22;18313;48.518;9.124;2022-08-02T11:32:59;33.10;73.70
31735;DHT22;18313;48.518;9.124;2022-08-02T11:35:38;32.70;72.90
31735;DHT22;18313;48.518;9.124;2022-08-02T11:38:12;32.40;75.00
31735;DHT22;18313;48.518;9.124;2022-08-02T11:40:42;32.60;75.40
31735;DHT22;18313;48.518;9.124;2022-08-02T11:43:21;32.80;72.80
31735;DHT22;18313;48.518;9.124;2022-08-02T11:45:52;32.40;73.30
31735;DHT22;18313;48.518;9.124;2022-08-02T11:48:36;32.20;75.40
31735;DHT22;18313;48.518;9.124;2022-08-02T11:53:52;32.10;72.10
31735;DHT22;18313;48.518;9.124;2022-08-02T11:56:37;32.40;74.40
31735;DHT22;18313;48.518;9.124;2022-08-02T11:59:09;33.00;75.60
31735;DHT22;18313;48.518;9.124;2022-08-02T12:01:40;33.30;72.90
31735;DHT22;18313;48.518;9.124;2022-08-02T12:04:18;33.40;72.30
31735;DHT22;18313;48.518;9.124;2022-08-02T12:06:53;33.40;73.70
31735;DHT22;18313;48.518;9.124;2022-08-02T12:09:22;33.70;72.20
31735;DHT22;18313;48.518;9.124;2022-08-02T12:11:49;33.90;74.80
31735;DHT22;18313;48.518;9.124;2022-08-02T12:14:17;34.20;74.70
31735;DHT22;18313;48.518;9.124;2022-08-02T12:16:45;34.30;69.60
31735;DHT22;18313;48.518;9.124;2022-08-02T12:19:31;33.60;70.80
31735;DHT22;18313;48.518;9.124;2022-08-02T12:22:13;33.40;69.70
31735;DHT22;18313;48.518;9.124;2022-08-02T12:24:47;33.30;71.00
31735;DHT22;18313;48.518;9.124;2022-08-02T12:27:34;33.20;70.30
31735;DHT22;18313;48.518;9.124;2022-08-02T12:30:06;33.30;70.10
31735;DHT22;18313;48.518;9.124;2022-08-02T12:32:34;33.00;71.10
31735;DHT22;18313;48.518;9.124;2022-08-02T12:35:03;32.90;71.50
31735;DHT22;18313;48.518;9.124;2022-08-02T12:37:30;32.60;71.00
31735;DHT22;18313;48.518;9.124;2022-08-02T12:39:57;32.40;71.40
31735;DHT22;18313;48.518;9.124;2022-08-02T12:42:24;32.90;70.20
31735;DHT22;18313;48.518;9.124;2022-08-02T12:44:57;33.30;70.10
31735;DHT22;18313;48.518;9.124;2022-08-02T12:47:27;33.60;71.40
31735;DHT22;18313;48.518;9.124;2022-08-02T12:52:38;34.40;69.30
31735;DHT22;18313;48.518;9.124;2022-08-02T12:55:34;34.70;70.60
31735;DHT22;18313;48.518;9.124;2022-08-02T12:58:23;34.80;68.10
31735;DHT22;18313;48.518;9.124;2022-08-02T13:00:53;34.90;65.20
31735;DHT22;18313;48.518;9.124;2022-08-02T13:03:20;34.70;64.40
31735;DHT22;18313;48.518;9.124;2022-08-02T13:06:08;34.90;67.40
31735;DHT22;18313;48.518;9.124;2022-08-02T13:08:55;34.90;65.90
31735;DHT22;18313;48.518;9.124;2022-08-02T13:11:24;34.60;63.80
31735;DHT22;18313;48.518;9.124;2022-08-02T13:13:53;34.20;65.40
31735;DHT22;18313;48.518;9.124;2022-08-02T13:16:20;34.20;65.80
31735;DHT22;18313;48.518;9.124;2022-08-02T13:18:57;34.50;65.50
31735;DHT22;18313;48.518;9.124;2022-08-02T13:21:24;34.70;64.40
31735;DHT22;18313;48.518;9.124;2022-08-02T13:24:11;34.70;66.60
31735;DHT22;18313;48.518;9.124;2022-08-02T13:27:01;34.90;68.00
31735;DHT22;18313;48.518;9.124;2022-08-02T13:29:36;35.20;65.30
31735;DHT22;18313;48.518;9.124;2022-08-02T13:32:03;35.50;64.30
31735;DHT22;18313;48.518;9.124;2022-08-02T13:34:31;35.30;64.60
31735;DHT22;18313;48.518;9.124;2022-08-02T13:36:58;35.10;64.30
31735;DHT22;18313;48.518;9.124;2022-08-02T13:39:25;34.60;65.80
31735;DHT22;18313;48.518;9.124;2022-08-02T13:41:52;34.50;65.00
31735;DHT22;18313;48.518;9.124;2022-08-02T13:44:19;34.30;63.90
31735;DHT22;18313;48.518;9.124;2022-08-02T13:46:46;34.10;63.40
31735;DHT22;18313;48.518;9.124;2022-08-02T13:49:13;34.30;64.80
31735;DHT22;18313;48.518;9.124;2022-08-02T13:51:46;34.60;63.70
31735;DHT22;18313;48.518;9.124;2022-08-02T13:54:14;34.80;67.40
31735;DHT22;18313;48.518;9.124;2022-08-02T13:56:41;34.60;62.40
31735;DHT22;18313;48.518;9.124;2022-08-02T13:59:08;34.50;63.60
31735;DHT22;18313;48.518;9.124;2022-08-02T14:01:55;34.70;63.50
31735;DHT22;18313;48.518;9.124;2022-08-02T14:04:24;35.10;65.70
31735;DHT22;18313;48.518;9.124;2022-08-02T14:06:51;35.40;62.90
31735;DHT22;18313;48.518;9.124;2022-08-02T14:09:19;35.30;63.90
31735;DHT22;18313;48.518;9.124;2022-08-02T14:11:46;35.00;65.90
31735;DHT22;18313;48.518;9.124;2022-08-02T14:14:13;35.00;65.60
31735;DHT22;18313;48.518;9.124;2022-08-02T14:16:44;35.00;62.20
31735;DHT22;18313;48.518;9.124;2022-08-02T14:19:11;34.90;64.40
31735;DHT22;18313;48.518;9.124;2022-08-02T14:21:46;34.60;65.30
31735;DHT22;18313;48.518;9.124;2022-08-02T14:24:15;34.10;65.50
31735;DHT22;18313;48.518;9.124;2022-08-02T14:26:43;34.00;66.10
31735;DHT22;18313;48.518;9.124;2022-08-02T14:29:12;34.10;65.60
31735;DHT22;18313;48.518;9.124;2022-08-02T14:31:40;34.20;65.80
31735;DHT22;18313;48.518;9.124;2022-08-02T14:34:11;33.60;65.00
31735;DHT22;18313;48.518;9.124;2022-08-02T14:36:38;33.30;66.20
31735;DHT22;18313;48.518;9.124;2022-08-02T14:39:06;33.30;66.90
31735;DHT22;18313;48.518;9.124;2022-08-02T14:41:33;33.10;66.80
31735;DHT22;18313;48.518;9.124;2022-08-02T14:44:22;33.10;66.30
31735;DHT22;18313;48.518;9.124;2022-08-02T14:46:49;33.60;67.80
31735;DHT22;18313;48.518;9.124;2022-08-02T14:49:19;34.00;63.60
31735;DHT22;18313;48.518;9.124;2022-08-02T14:51:52;34.20;64.10
31735;DHT22;18313;48.518;9.124;2022-08-02T14:54:19;34.70;66.40
31735;DHT22;18313;48.518;9.124;2022-08-02T14:57:01;35.10;66.60
31735;DHT22;18313;48.518;9.124;2022-08-02T14:59:29;35.20;63.30
31735;DHT22;18313;48.518;9.124;2022-08-02T15:01:57;35.00;65.40
31735;DHT22;18313;48.518;9.124;2022-08-02T15:04:25;35.00;65.60
31735;DHT22;18313;48.518;9.124;2022-08-02T15:06:53;34.90;66.70
31735;DHT22;18313;48.518;9.124;2022-08-02T15:09:20;34.70;64.90
31735;DHT22;18313;48.518;9.124;2022-08-02T15:11:47;34.30;65.50
31735;DHT22;18313;48.518;9.124;2022-08-02T15:14:16;34.20;66.30
31735;DHT22;18313;48.518;9.124;2022-08-02T15:16:55;34.10;65.70
31735;DHT22;18313;48.518;9.124;2022-08-02T15:19:25;33.80;65.60
31735;DHT22;18313;48.518;9.124;2022-08-02T15:22:13;33.40;67.20
31735;DHT22;18313;48.518;9.124;2022-08-02T15:24:45;33.30;67.10
31735;DHT22;18313;48.518;9.124;2022-08-02T15:27:12;33.10;67.40
31735;DHT22;18313;48.518;9.124;2022-08-02T15:29:41;32.60;67.30
31735;DHT22;18313;48.518;9.124;2022-08-02T15:32:09;32.60;68.20
31735;DHT22;18313;48.518;9.124;2022-08-02T15:34:37;32.80;68.00
31735;DHT22;18313;48.518;9.124;2022-08-02T15:37:04;33.20;68.50
31735;DHT22;18313;48.518;9.124;2022-08-02T15:39:31;33.30;67.00
31735;DHT22;18313;48.518;9.124;2022-08-02T15:41:58;33.50;65.80
31735;DHT22;18313;48.518;9.124;2022-08-02T15:44:25;33.60;66.40
31735;DHT22;18313;48.518;9.124;2022-08-02T15:46:52;33.60;66.10
31735;DHT22;18313;48.518;9.124;2022-08-02T15:49:20;33.80;66.80
31735;DHT22;18313;48.518;9.124;2022-08-02T15:51:53;33.80;65.90
31735;DHT22;18313;48.518;9.124;2022-08-02T15:54:20;33.70;66.90
31735;DHT22;18313;48.518;9.124;2022-08-02T15:56:48;33.80;66.40
31735;DHT22;18313;48.518;9.124;2022-08-02T15:59:15;34.00;65.10
31735;DHT22;18313;48.518;9.124;2022-08-02T16:01:42;33.90;66.30
31735;DHT22;18313;48.518;9.124;2022-08-02T16:04:14;33.70;64.80
31735;DHT22;18313;48.518;9.124;2022-08-02T16:06:42;33.30;65.50
31735;DHT22;18313;48.518;9.124;2022-08-02T16:09:09;32.90;66.40
31735;DHT22;18313;48.518;9.124;2022-08-02T16:11:37;32.70;67.20
31735;DHT22;18313;48.518;9.124;2022-08-02T16:14:04;32.70;65.90
31735;DHT22;18313;48.518;9.124;2022-08-02T16:16:33;32.50;66.30
31735;DHT22;18313;48.518;9.124;2022-08-02T16:19:00;32.50;66.40
31735;DHT22;18313;48.518;9.124;2022-08-02T16:21:48;32.50;66.90
31735;DHT22;18313;48.518;9.124;2022-08-02T16:24:16;32.60;66.80
31735;DHT22;18313;48.518;9.124;2022-08-02T16:26:43;32.40;66.00
31735;DHT22;18313;48.518;9.124;2022-08-02T16:29:10;32.40;66.90
31735;DHT22;18313;48.518;9.124;2022-08-02T16:31:37;32.10;66.30